TIJ weather

General Abelardo L. Rodríguez International Airport
Tijuana, Baja California, Mexico

Public forecast

Using degrees Celsius for public forecast. Weather courtesy of forecast.io.

Current aviation weather report (METAR) for General Abelardo L. Rodríguez International Airport

Retrieved 2019/11/13 11:43 UTC (0 seconds ago):

MMTJ 131143Z 36003KT 1/16SM FG VV001 12/12 A3001 RMK SLP162 57011 970 8//// TWR VSBY

Aviation forecast (TAF) for General Abelardo L. Rodríguez International Airport

Retrieved 2019/11/13 06:55 UTC (4 hours ago):

TAF MMTJ 130448Z 1306/1412 26005KT 1/4SM FG VV001 TX23/1321Z TN13/1312Z FM131630 00000KT 1SM BR BKN003 BKN010 FM131700 00000KT 3SM BR SCT010 FM131800 33010KT 6SM HZ SKC FM140300 33005KT 4SM BR BKN010